Time,TemperatureF,DewpointF,PressureIn,WindDirection,WindDirectionDegrees,WindSpeedMPH,WindSpeedGustMPH,Humidity,HourlyPrecipIn,Conditions,Clouds,dailyrainin,SolarRadiationWatts/m^2,SoftwareType,DateUTC
2013-03-29 00:14:00,38.1,11.0,29.99,North,360,0.0,2.0,32,0.00,,,0.00,0,weatherlink.com 1.10,2013-03-29 06:14:00,
2013-03-29 00:29:00,37.9,10.0,29.99,North,360,0.0,0.0,32,0.00,,,0.00,0,weatherlink.com 1.10,2013-03-29 06:29:00,
2013-03-29 00:44:00,38.0,9.0,29.99,North,360,0.0,0.0,30,0.00,,,0.00,0,weatherlink.com 1.10,2013-03-29 06:44:00,
2013-03-29 00:59:00,37.7,9.0,29.98,North,360,0.0,0.0,31,0.00,,,0.00,0,weatherlink.com 1.10,2013-03-29 06:59:00,
2013-03-29 01:14:00,37.9,10.0,29.99,North,360,0.0,2.0,31,0.00,,,0.00,0,weatherlink.com 1.10,2013-03-29 07:14:00,
2013-03-29 01:29:00,37.6,9.0,29.99,North,360,1.0,2.0,31,0.00,,,0.00,0,weatherlink.com 1.10,2013-03-29 07:29:00,
2013-03-29 01:44:00,37.8,10.0,29.99,North,360,1.0,2.0,31,0.00,,,0.00,0,weatherlink.com 1.10,2013-03-29 07:44:00,
2013-03-29 01:59:00,36.9,10.0,29.99,North,360,0.0,0.0,33,0.00,,,0.00,0,weatherlink.com 1.10,2013-03-29 07:59:00,
2013-03-29 02:14:00,36.2,9.0,29.98,North,360,0.0,1.0,32,0.00,,,0.00,0,weatherlink.com 1.10,2013-03-29 08:14:00,
2013-03-29 02:29:00,36.1,9.0,29.98,North,360,0.0,0.0,33,0.00,,,0.00,0,weatherlink.com 1.10,2013-03-29 08:29:00,
2013-03-29 02:44:00,35.5,10.0,29.98,North,360,0.0,0.0,34,0.00,,,0.00,0,weatherlink.com 1.10,2013-03-29 08:44:00,
2013-03-29 02:59:00,34.3,9.0,29.98,North,360,0.0,0.0,35,0.00,,,0.00,0,weatherlink.com 1.10,2013-03-29 08:59:00,
2013-03-29 03:14:00,35.6,9.0,29.98,North,360,0.0,0.0,33,0.00,,,0.00,0,weatherlink.com 1.10,2013-03-29 09:14:00,
2013-03-29 03:29:00,35.8,9.0,29.98,North,360,0.0,1.0,33,0.00,,,0.00,0,weatherlink.com 1.10,2013-03-29 09:29:00,
2013-03-29 03:44:00,35.9,9.0,29.98,North,360,0.0,1.0,33,0.00,,,0.00,0,weatherlink.com 1.10,2013-03-29 09:44:00,
2013-03-29 03:59:00,35.7,10.0,29.98,North,360,0.0,1.0,34,0.00,,,0.00,0,weatherlink.com 1.10,2013-03-29 09:59:00,
2013-03-29 04:14:00,36.0,10.0,29.98,North,360,0.0,1.0,34,0.00,,,0.00,0,weatherlink.com 1.10,2013-03-29 10:14:00,
2013-03-29 04:29:00,35.6,10.0,29.98,North,360,0.0,0.0,34,0.00,,,0.00,0,weatherlink.com 1.10,2013-03-29 10:29:00,
2013-03-29 04:44:00,34.2,10.0,29.98,North,360,0.0,0.0,36,0.00,,,0.00,0,weatherlink.com 1.10,2013-03-29 10:44:00,
2013-03-29 04:59:00,33.8,10.0,29.98,North,360,0.0,0.0,37,0.00,,,0.00,0,weatherlink.com 1.10,2013-03-29 10:59:00,
2013-03-29 05:14:00,35.1,10.0,29.98,North,360,0.0,2.0,35,0.00,,,0.00,0,weatherlink.com 1.10,2013-03-29 11:14:00,
2013-03-29 05:29:00,35.6,10.0,29.98,North,360,0.0,2.0,35,0.00,,,0.00,0,weatherlink.com 1.10,2013-03-29 11:29:00,
2013-03-29 05:44:00,35.3,11.0,29.98,North,360,1.0,2.0,36,0.00,,,0.00,0,weatherlink.com 1.10,2013-03-29 11:44:00,
2013-03-29 05:59:00,34.4,12.0,29.98,North,360,0.0,2.0,40,0.00,,,0.00,0,weatherlink.com 1.10,2013-03-29 11:59:00,
2013-03-29 06:14:00,32.9,12.0,29.98,North,360,0.0,0.0,42,0.00,,,0.00,0,weatherlink.com 1.10,2013-03-29 12:14:00,
2013-03-29 06:29:00,33.7,10.0,29.98,North,360,0.0,2.0,38,0.00,,,0.00,0,weatherlink.com 1.10,2013-03-29 12:29:00,
2013-03-29 06:44:00,34.2,11.0,29.98,North,360,0.0,0.0,39,0.00,,,0.00,0,weatherlink.com 1.10,2013-03-29 12:44:00,
2013-03-29 06:59:00,34.3,10.0,29.99,North,360,0.0,0.0,37,0.00,,,0.00,7,weatherlink.com 1.10,2013-03-29 12:59:00,
2013-03-29 07:14:00,34.4,11.0,30.00,North,360,0.0,2.0,38,0.00,,,0.00,19,weatherlink.com 1.10,2013-03-29 13:14:00,
2013-03-29 07:29:00,35.1,11.0,30.00,North,360,0.0,0.0,37,0.00,,,0.00,30,weatherlink.com 1.10,2013-03-29 13:29:00,
2013-03-29 07:44:00,36.8,11.0,30.00,North,360,1.0,1.0,35,0.00,,,0.00,42,weatherlink.com 1.10,2013-03-29 13:44:00,
2013-03-29 07:59:00,38.9,14.0,30.00,North,360,0.0,2.0,36,0.00,,,0.00,58,weatherlink.com 1.10,2013-03-29 13:59:00,
2013-03-29 08:14:00,38.7,14.0,30.00,North,360,0.0,1.0,36,0.00,,,0.00,70,weatherlink.com 1.10,2013-03-29 14:14:00,
2013-03-29 08:29:00,38.9,13.0,30.00,North,360,0.0,3.0,35,0.00,,,0.00,86,weatherlink.com 1.10,2013-03-29 14:29:00,
2013-03-29 08:45:00,39.9,13.0,30.00,North,360,0.0,1.0,34,0.00,,,0.00,114,weatherlink.com 1.10,2013-03-29 14:45:00,
2013-03-29 09:00:00,40.7,14.0,30.00,North,360,0.0,2.0,33,0.00,,,0.00,148,weatherlink.com 1.10,2013-03-29 15:00:00,
2013-03-29 09:15:00,41.1,13.0,30.00,North,360,0.0,2.0,32,0.00,,,0.00,181,weatherlink.com 1.10,2013-03-29 15:15:00,
2013-03-29 09:30:00,41.5,14.0,30.00,North,360,2.0,3.0,32,0.00,,,0.00,202,weatherlink.com 1.10,2013-03-29 15:30:00,
2013-03-29 09:45:00,41.8,13.0,30.00,North,360,0.0,2.0,31,0.00,,,0.00,229,weatherlink.com 1.10,2013-03-29 15:45:00,
2013-03-29 10:00:00,42.7,14.0,30.00,North,360,0.0,3.0,31,0.00,,,0.00,279,weatherlink.com 1.10,2013-03-29 16:00:00,
2013-03-29 10:15:00,43.9,16.0,30.00,North,360,0.0,2.0,33,0.00,,,0.00,313,weatherlink.com 1.10,2013-03-29 16:15:00,
2013-03-29 10:30:00,44.2,15.0,30.00,North,360,1.0,3.0,31,0.00,,,0.00,313,weatherlink.com 1.10,2013-03-29 16:30:00,
2013-03-29 10:45:00,44.9,18.0,30.00,North,360,1.0,3.0,34,0.00,,,0.00,301,weatherlink.com 1.10,2013-03-29 16:45:00,
2013-03-29 11:00:00,45.7,17.0,30.00,West,260,1.0,3.0,32,0.00,,,0.00,401,weatherlink.com 1.10,2013-03-29 17:00:00,
2013-03-29 11:15:00,46.1,18.0,30.00,North,360,0.0,4.0,33,0.00,,,0.00,390,weatherlink.com 1.10,2013-03-29 17:15:00,
2013-03-29 11:30:00,46.8,17.0,30.00,North,360,1.0,2.0,31,0.00,,,0.00,343,weatherlink.com 1.10,2013-03-29 17:30:00,
2013-03-29 11:45:00,47.1,18.0,30.00,North,360,0.0,4.0,32,0.00,,,0.00,364,weatherlink.com 1.10,2013-03-29 17:45:00,
2013-03-29 12:00:00,47.7,18.0,29.99,North,360,1.0,4.0,31,0.00,,,0.00,438,weatherlink.com 1.10,2013-03-29 18:00:00,
2013-03-29 12:15:00,48.7,20.0,29.99,North,360,2.0,4.0,32,0.00,,,0.00,482,weatherlink.com 1.10,2013-03-29 18:15:00,
2013-03-29 12:30:00,48.8,19.0,29.98,North,360,3.0,6.0,31,0.00,,,0.00,394,weatherlink.com 1.10,2013-03-29 18:30:00,
2013-03-29 12:45:00,50.7,19.0,29.97,SW,232,3.0,6.0,29,0.00,,,0.00,696,weatherlink.com 1.10,2013-03-29 18:45:00,
2013-03-29 13:00:00,52.3,20.0,29.96,WSW,257,3.0,5.0,28,0.00,,,0.00,580,weatherlink.com 1.10,2013-03-29 19:00:00,
2013-03-29 13:15:00,51.9,20.0,29.96,WSW,257,4.0,8.0,29,0.00,,,0.00,480,weatherlink.com 1.10,2013-03-29 19:15:00,
2013-03-29 13:30:00,51.9,17.0,29.96,North,360,7.0,8.0,25,0.00,,,0.00,610,weatherlink.com 1.10,2013-03-29 19:30:00,
2013-03-29 13:45:00,51.0,18.0,29.96,North,360,5.0,7.0,27,0.00,,,0.00,441,weatherlink.com 1.10,2013-03-29 19:45:00,
2013-03-29 14:00:00,50.7,19.0,29.95,North,360,2.0,5.0,29,0.00,,,0.00,448,weatherlink.com 1.10,2013-03-29 20:00:00,
2013-03-29 14:16:00,50.0,18.0,29.95,North,360,3.0,6.0,28,0.00,,,0.00,283,weatherlink.com 1.10,2013-03-29 20:16:00,
2013-03-29 14:30:00,49.2,19.0,29.95,North,360,2.0,5.0,30,0.00,,,0.00,320,weatherlink.com 1.10,2013-03-29 20:30:00,
2013-03-29 14:46:00,50.8,19.0,29.94,North,360,3.0,6.0,28,0.00,,,0.00,373,weatherlink.com 1.10,2013-03-29 20:46:00,
2013-03-29 15:01:00,52.6,18.0,29.93,North,360,2.0,5.0,26,0.00,,,0.00,383,weatherlink.com 1.10,2013-03-29 21:01:00,
2013-03-29 15:16:00,51.4,18.0,29.93,North,360,1.0,5.0,27,0.00,,,0.00,158,weatherlink.com 1.10,2013-03-29 21:16:00,
2013-03-29 15:31:00,48.6,20.0,29.93,North,360,3.0,6.0,32,0.00,,,0.00,251,weatherlink.com 1.10,2013-03-29 21:31:00,
2013-03-29 15:46:00,51.4,22.0,29.93,West,260,1.0,6.0,31,0.00,,,0.00,819,weatherlink.com 1.10,2013-03-29 21:46:00,
2013-03-29 16:01:00,54.1,20.0,29.92,SW,228,3.0,4.0,26,0.00,,,0.00,821,weatherlink.com 1.10,2013-03-29 22:01:00,
2013-03-29 16:16:00,51.5,20.0,29.93,WNW,288,2.0,7.0,29,0.00,,,0.00,624,weatherlink.com 1.10,2013-03-29 22:16:00,
2013-03-29 16:31:00,53.5,19.0,29.92,North,360,5.0,5.0,26,0.00,,,0.00,645,weatherlink.com 1.10,2013-03-29 22:31:00,
2013-03-29 16:46:00,53.3,20.0,29.92,NW,309,3.0,7.0,27,0.00,,,0.00,622,weatherlink.com 1.10,2013-03-29 22:46:00,
2013-03-29 17:01:00,53.3,19.0,29.92,North,360,3.0,9.0,26,0.00,,,0.00,587,weatherlink.com 1.10,2013-03-29 23:01:00,
2013-03-29 17:16:00,52.7,21.0,29.92,NW,309,3.0,6.0,29,0.00,,,0.00,503,weatherlink.com 1.10,2013-03-29 23:16:00,
2013-03-29 17:31:00,52.0,20.0,29.92,North,360,2.0,5.0,28,0.00,,,0.00,439,weatherlink.com 1.10,2013-03-29 23:31:00,
2013-03-29 17:46:00,48.0,22.0,29.92,North,360,0.0,4.0,36,0.00,,,0.00,53,weatherlink.com 1.10,2013-03-29 23:46:00,
2013-03-29 18:01:00,46.4,22.0,29.93,North,360,0.0,0.0,38,0.00,,,0.00,60,weatherlink.com 1.10,2013-03-30 00:01:00,
2013-03-29 18:46:00,42.3,27.0,29.96,North,360,0.0,5.0,54,0.00,,,0.00,19,weatherlink.com 1.10,2013-03-30 00:46:00,
2013-03-29 19:01:00,41.1,27.0,29.97,North,360,1.0,3.0,57,0.00,,,0.00,21,weatherlink.com 1.10,2013-03-30 01:01:00,
2013-03-29 19:16:00,40.6,27.0,29.97,North,360,0.0,1.0,58,0.00,,,0.00,11,weatherlink.com 1.10,2013-03-30 01:16:00,
2013-03-29 19:31:00,39.0,26.0,29.96,North,360,0.0,0.0,61,0.00,,,0.00,0,weatherlink.com 1.10,2013-03-30 01:31:00,
2013-03-29 20:01:00,35.9,25.0,29.96,North,360,0.0,0.0,65,0.00,,,0.00,0,weatherlink.com 1.10,2013-03-30 02:01:00,
2013-03-29 20:16:00,35.2,26.0,29.96,North,360,0.0,0.0,68,0.00,,,0.00,0,weatherlink.com 1.10,2013-03-30 02:16:00,
2013-03-29 21:01:00,34.6,26.0,29.98,North,360,1.0,2.0,71,0.00,,,0.00,0,weatherlink.com 1.10,2013-03-30 03:01:00,
2013-03-29 21:16:00,34.8,25.0,29.98,North,360,0.0,0.0,67,0.00,,,0.00,0,weatherlink.com 1.10,2013-03-30 03:16:00,
2013-03-29 21:31:00,35.1,25.0,29.98,North,360,0.0,0.0,67,0.00,,,0.00,0,weatherlink.com 1.10,2013-03-30 03:31:00,
2013-03-29 21:46:00,35.0,24.0,29.99,North,360,0.0,0.0,65,0.00,,,0.00,0,weatherlink.com 1.10,2013-03-30 03:46:00,
2013-03-29 22:01:00,34.2,24.0,29.99,North,360,0.0,0.0,67,0.00,,,0.00,0,weatherlink.com 1.10,2013-03-30 04:01:00,
2013-03-29 22:16:00,34.6,25.0,30.00,North,360,0.0,0.0,69,0.00,,,0.00,0,weatherlink.com 1.10,2013-03-30 04:16:00,
2013-03-29 22:31:00,33.2,25.0,30.00,SE,137,0.0,0.0,73,0.00,,,0.00,0,weatherlink.com 1.10,2013-03-30 04:31:00,
2013-03-29 22:46:00,32.8,25.0,30.00,SE,138,0.0,0.0,72,0.00,,,0.00,0,weatherlink.com 1.10,2013-03-30 04:46:00,
2013-03-29 23:01:00,33.2,25.0,30.01,SE,138,0.0,0.0,73,0.00,,,0.00,0,weatherlink.com 1.10,2013-03-30 05:01:00,
2013-03-29 23:16:00,33.3,25.0,30.01,ESE,117,0.0,1.0,71,0.00,,,0.00,0,weatherlink.com 1.10,2013-03-30 05:16:00,
2013-03-29 23:31:00,33.9,24.0,30.01,North,360,0.0,0.0,66,0.00,,,0.00,0,weatherlink.com 1.10,2013-03-30 05:31:00,
2013-03-29 23:46:00,34.9,24.0,30.01,North,360,0.0,0.0,65,0.00,,,0.00,0,weatherlink.com 1.10,2013-03-30 05:46:00,